Time;durP1;ratioP1;P1;durP2;ratioP2;P2;SDS_P1;SDS_P2;PMS_P1;PMS_P2;Temp;Humidity;BMP_temperature;BMP_pressure;BME280_temperature;BME280_humidity;BME280_pressure;Samples;Min_cycle;Max_cycle;Signal;HPM_P1;HPM_P2
2023/01/08 00:00:30;;;;;;;;;;;9.60;99.90;;;;;;5076553;28;19913;-72
2023/01/08 00:02:58;;;;;;;;;;;9.60;99.90;;;;;;5057722;28;20364;-72
2023/01/08 00:05:24;;;;;;;;;;;9.60;99.90;;;;;;5077608;28;19963;-71
2023/01/08 00:07:49;;;;;;;;;;;9.60;99.90;;;;;;5076084;28;19948;-71
2023/01/08 00:10:16;;;;;;;;;;;9.60;99.90;;;;;;5057561;28;20351;-72
2023/01/08 00:12:42;;;;;;;;;;;9.70;99.90;;;;;;5074454;28;19999;-72
2023/01/08 00:15:08;;;;;;;;;;;9.70;99.90;;;;;;5075470;28;20007;-72
2023/01/08 00:17:36;;;;;;;;;;;9.80;99.90;;;;;;5075252;28;20003;-72
2023/01/08 00:20:03;;;;;;;;;;;9.70;99.90;;;;;;5076132;28;19912;-72
2023/01/08 00:22:28;;;;;;;;;;;9.70;99.90;;;;;;5073915;28;19982;-72
2023/01/08 00:24:54;;;;;;;;;;;9.70;99.90;;;;;;5057476;28;19917;-72
2023/01/08 00:27:20;;;;;;;;;;;9.70;99.90;;;;;;5071600;28;19916;-71
2023/01/08 00:29:45;;;;;;;;;;;9.60;99.90;;;;;;5075643;28;19919;-72
2023/01/08 00:32:12;;;;;;;;;;;9.60;99.90;;;;;;5059177;28;19919;-72
2023/01/08 00:34:38;;;;;;;;;;;9.70;99.90;;;;;;5058807;28;19946;-72
2023/01/08 00:37:07;;;;;;;;;;;9.70;99.90;;;;;;5075190;28;19913;-71
2023/01/08 00:39:33;;;;;;;;;;;9.80;99.90;;;;;;5075558;28;19912;-71
2023/01/08 00:41:59;;;;;;;;;;;9.80;99.90;;;;;;5059338;28;19920;-72
2023/01/08 00:44:25;;;;;;;;;;;9.80;99.90;;;;;;5077479;28;19923;-71
2023/01/08 00:46:51;;;;;;;;;;;9.80;99.90;;;;;;5075269;28;20705;-72
2023/01/08 00:49:18;;;;;;;;;;;9.80;99.90;;;;;;5057614;28;20013;-72
2023/01/08 00:51:44;;;;;;;;;;;9.80;99.90;;;;;;5075178;28;19913;-72
2023/01/08 00:54:10;;;;;;;;;;;9.70;99.90;;;;;;5058395;28;19922;-72
2023/01/08 00:56:36;;;;;;;;;;;9.70;99.90;;;;;;5077080;28;19958;-72
2023/01/08 00:59:01;;;;;;;;;;;9.70;99.90;;;;;;5077102;28;19912;-71
2023/01/08 01:01:29;;;;;;;;;;;9.70;99.90;;;;;;5058976;28;19948;-71
2023/01/08 01:03:54;;;;;;;;;;;9.60;99.90;;;;;;5075192;28;20249;-71
2023/01/08 01:06:20;;;;;;;;;;;9.50;99.90;;;;;;5074418;28;19917;-70
2023/01/08 01:08:48;;;;;;;;;;;9.40;99.90;;;;;;5074562;28;19917;-70
2023/01/08 01:11:24;;;;;;;;;;;9.40;99.90;;;;;;5057371;28;19916;-71
2023/01/08 01:13:50;;;;;;;;;;;9.30;99.90;;;;;;5074316;28;19954;-71
2023/01/08 01:16:16;;;;;;;;;;;9.30;99.90;;;;;;5074994;28;19920;-72
2023/01/08 01:18:43;;;;;;;;;;;9.40;99.90;;;;;;5074854;28;20420;-71
2023/01/08 01:21:15;;;;;;;;;;;9.30;99.90;;;;;;5074985;28;19912;-71
2023/01/08 01:23:42;;;;;;;;;;;9.30;99.90;;;;;;5073614;28;20356;-71
2023/01/08 01:26:18;;;;;;;;;;;9.20;99.90;;;;;;5074436;28;19919;-71
2023/01/08 01:28:46;;;;;;;;;;;9.20;99.90;;;;;;5076394;28;20276;-71
2023/01/08 01:31:12;;;;;;;;;;;9.20;99.90;;;;;;5057763;28;19912;-71
2023/01/08 01:33:38;;;;;;;;;;;9.10;99.90;;;;;;5057024;28;20367;-71
2023/01/08 01:36:06;;;;;;;;;;;9.20;99.90;;;;;;5071382;28;19913;-72
2023/01/08 01:38:32;;;;;;;;;;;9.20;99.90;;;;;;5074797;28;20022;-71
2023/01/08 01:40:58;;;;;;;;;;;9.30;99.90;;;;;;5056296;28;20027;-72
2023/01/08 01:43:53;;;;;;;;;;;9.30;99.90;;;;;;5074404;28;20388;-71
2023/01/08 01:46:39;;;;;;;;;;;9.40;99.90;;;;;;5074225;28;19912;-72
2023/01/08 01:49:07;;;;;;;;;;;9.30;99.90;;;;;;5075388;28;19952;-71
2023/01/08 01:51:34;;;;;;;;;;;9.40;99.90;;;;;;5041083;28;19916;-68
2023/01/08 01:54:03;;;;;;;;;;;9.40;99.90;;;;;;5074227;28;19913;-71
2023/01/08 01:56:29;;;;;;;;;;;;;;;;;;5039696;28;19917;-72
2023/01/08 01:58:55;;;;;;;;;;;9.70;99.90;;;;;;5056212;28;20387;-70
2023/01/08 02:01:30;;;;;;;;;;;9.70;99.90;;;;;;5057690;28;20022;-71
2023/01/08 02:03:55;;;;;;;;;;;9.60;99.90;;;;;;5075906;28;19921;-71
2023/01/08 02:06:33;;;;;;;;;;;9.70;99.90;;;;;;5057889;28;20381;-72
2023/01/08 02:09:14;;;;;;;;;;;9.70;99.90;;;;;;5074979;28;19916;-72
2023/01/08 02:12:17;;;;;;;;;;;9.60;99.90;;;;;;5073678;28;19916;-70
2023/01/08 02:15:01;;;;;;;;;;;9.40;99.90;;;;;;5055015;28;19943;-71
2023/01/08 02:17:46;;;;;;;;;;;9.50;99.90;;;;;;5055679;28;19920;-72
2023/01/08 02:20:14;;;;;;;;;;;9.70;99.90;;;;;;5075327;28;20031;-72
2023/01/08 02:22:48;;;;;;;;;;;9.60;99.90;;;;;;5075466;28;19959;-72
2023/01/08 02:25:26;;;;;;;;;;;9.50;99.90;;;;;;5075445;28;19913;-72
2023/01/08 02:27:55;;;;;;;;;;;9.50;99.90;;;;;;5073935;28;19952;-72
2023/01/08 02:30:21;;;;;;;;;;;9.60;99.90;;;;;;5073566;28;19958;-72
2023/01/08 02:32:47;;;;;;;;;;;;;;;;;;5054803;28;19916;-71
2023/01/08 02:35:12;;;;;;;;;;;9.50;99.90;;;;;;5073161;28;20283;-71
2023/01/08 02:37:39;;;;;;;;;;;9.70;99.90;;;;;;5073669;28;19918;-72
2023/01/08 02:40:09;;;;;;;;;;;9.80;99.90;;;;;;5074154;28;19912;-71
2023/01/08 02:42:54;;;;;;;;;;;9.70;99.90;;;;;;5073333;28;19920;-71
2023/01/08 02:45:22;;;;;;;;;;;9.70;99.90;;;;;;5053250;28;19917;-71
2023/01/08 02:48:11;;;;;;;;;;;9.70;99.90;;;;;;5071439;28;20007;-71
2023/01/08 02:50:56;;;;;;;;;;;9.70;99.90;;;;;;5017834;28;19912;-71
2023/01/08 02:53:24;;;;;;;;;;;9.70;99.90;;;;;;5073163;28;19940;-72
2023/01/08 02:55:58;;;;;;;;;;;9.60;99.90;;;;;;5072633;28;19999;-71
2023/01/08 02:58:27;;;;;;;;;;;9.70;99.90;;;;;;5054140;28;19916;-71
2023/01/08 03:00:53;;;;;;;;;;;9.80;99.90;;;;;;5072569;28;20275;-71
2023/01/08 03:03:23;;;;;;;;;;;9.80;99.90;;;;;;5072936;28;19926;-71
2023/01/08 03:05:51;;;;;;;;;;;9.80;99.90;;;;;;5072999;28;20364;-71
2023/01/08 03:08:18;;;;;;;;;;;9.80;99.90;;;;;;5052747;28;20348;-69
2023/01/08 03:10:45;;;;;;;;;;;9.90;99.90;;;;;;5071897;28;19912;-71
2023/01/08 03:13:16;;;;;;;;;;;9.80;99.90;;;;;;5054556;28;20253;-71
2023/01/08 03:15:45;;;;;;;;;;;9.80;99.90;;;;;;5072310;28;19969;-71
2023/01/08 03:18:13;;;;;;;;;;;9.80;99.90;;;;;;5056018;28;20355;-71
2023/01/08 03:20:39;;;;;;;;;;;9.90;99.90;;;;;;5072358;28;19913;-68
2023/01/08 03:23:08;;;;;;;;;;;9.80;99.90;;;;;;5072922;28;19920;-71
2023/01/08 03:25:36;;;;;;;;;;;9.80;99.90;;;;;;5056458;28;20375;-69
2023/01/08 03:28:07;;;;;;;;;;;9.90;99.90;;;;;;5033973;28;20000;-71
2023/01/08 03:30:35;;;;;;;;;;;9.90;99.90;;;;;;5052692;28;19920;-68
2023/01/08 03:33:01;;;;;;;;;;;9.90;99.90;;;;;;5052190;28;19913;-71
2023/01/08 03:35:29;;;;;;;;;;;9.90;99.90;;;;;;5034420;28;20007;-71
2023/01/08 03:37:57;;;;;;;;;;;9.90;99.90;;;;;;5053240;28;19921;-71
2023/01/08 03:40:30;;;;;;;;;;;9.90;99.90;;;;;;5072709;28;19958;-71
2023/01/08 03:42:56;;;;;;;;;;;10.00;99.90;;;;;;5072576;28;20384;-71
2023/01/08 03:45:23;;;;;;;;;;;9.90;99.90;;;;;;5072340;28;19913;-71
2023/01/08 03:47:49;;;;;;;;;;;10.00;99.90;;;;;;5071632;28;20249;-72
2023/01/08 03:50:16;;;;;;;;;;;10.10;99.90;;;;;;5072479;28;19920;-71
2023/01/08 03:52:42;;;;;;;;;;;10.00;99.90;;;;;;5072137;28;19912;-72
2023/01/08 03:55:08;;;;;;;;;;;9.90;99.90;;;;;;5071815;28;19956;-71
2023/01/08 03:57:35;;;;;;;;;;;9.90;99.90;;;;;;5072259;28;20482;-69
2023/01/08 04:00:01;;;;;;;;;;;9.90;99.90;;;;;;5054082;28;19986;-72
2023/01/08 04:02:27;;;;;;;;;;;9.90;99.90;;;;;;5072171;28;20383;-71
2023/01/08 04:04:53;;;;;;;;;;;9.90;99.90;;;;;;5072109;28;20371;-71
2023/01/08 04:07:18;;;;;;;;;;;9.90;99.90;;;;;;5054206;28;19912;-71
2023/01/08 04:09:44;;;;;;;;;;;9.90;99.90;;;;;;5071743;28;20271;-71
2023/01/08 04:12:10;;;;;;;;;;;9.80;99.90;;;;;;5072291;28;20422;-71
2023/01/08 04:14:35;;;;;;;;;;;9.80;99.90;;;;;;5053926;28;19917;-70
2023/01/08 04:17:01;;;;;;;;;;;9.80;99.90;;;;;;5073604;28;19912;-71
2023/01/08 04:19:27;;;;;;;;;;;9.80;99.90;;;;;;5054127;28;19912;-71
2023/01/08 04:21:53;;;;;;;;;;;9.80;99.90;;;;;;5072421;28;19995;-71
2023/01/08 04:24:18;;;;;;;;;;;9.80;99.90;;;;;;5072861;28;20011;-70
2023/01/08 04:26:46;;;;;;;;;;;9.70;99.90;;;;;;5051396;28;19920;-71
2023/01/08 04:29:13;;;;;;;;;;;9.70;99.90;;;;;;5050328;28;19913;-71
2023/01/08 04:31:40;;;;;;;;;;;9.70;99.90;;;;;;5051570;28;20454;-69
2023/01/08 04:34:06;;;;;;;;;;;9.70;99.90;;;;;;5060080;28;19913;-70
2023/01/08 04:36:35;;;;;;;;;;;9.70;99.90;;;;;;5072191;28;19912;-71
2023/01/08 04:39:01;;;;;;;;;;;9.60;99.90;;;;;;5039517;28;19916;-71
2023/01/08 04:41:28;;;;;;;;;;;9.60;99.90;;;;;;5075466;28;19919;-71
2023/01/08 04:43:54;;;;;;;;;;;9.60;99.90;;;;;;5074877;28;19924;-68
2023/01/08 04:46:20;;;;;;;;;;;9.50;99.90;;;;;;5075395;28;19981;-70
2023/01/08 04:48:45;;;;;;;;;;;9.50;99.90;;;;;;5077415;28;19912;-68
2023/01/08 04:51:11;;;;;;;;;;;9.50;99.90;;;;;;5077146;28;19938;-67
2023/01/08 04:53:39;;;;;;;;;;;9.50;99.90;;;;;;5076471;28;19913;-67
2023/01/08 04:56:06;;;;;;;;;;;9.50;99.90;;;;;;5077170;28;19912;-69
2023/01/08 04:58:35;;;;;;;;;;;9.50;99.90;;;;;;5059183;28;20318;-68
2023/01/08 05:01:00;;;;;;;;;;;9.50;99.90;;;;;;5076669;28;20005;-68
2023/01/08 05:03:26;;;;;;;;;;;9.40;99.90;;;;;;5076798;28;20371;-68
2023/01/08 05:05:52;;;;;;;;;;;9.40;99.90;;;;;;5077076;28;19912;-69
2023/01/08 05:08:17;;;;;;;;;;;9.40;99.90;;;;;;5076991;28;19912;-70
2023/01/08 05:10:43;;;;;;;;;;;9.30;99.90;;;;;;5058960;28;19918;-69
2023/01/08 05:13:08;;;;;;;;;;;9.30;99.90;;;;;;5076688;28;19913;-70
2023/01/08 05:15:34;;;;;;;;;;;9.30;99.90;;;;;;5076741;28;20355;-68
2023/01/08 05:18:00;;;;;;;;;;;9.30;99.90;;;;;;5076873;28;20072;-70
2023/01/08 05:20:26;;;;;;;;;;;9.30;99.90;;;;;;5076926;28;19913;-68
2023/01/08 05:22:52;;;;;;;;;;;9.30;99.90;;;;;;5076650;28;19946;-70
2023/01/08 05:25:18;;;;;;;;;;;9.30;99.90;;;;;;5076440;28;19917;-68
2023/01/08 05:27:43;;;;;;;;;;;9.20;99.90;;;;;;5058482;28;20249;-69
2023/01/08 05:30:09;;;;;;;;;;;9.20;99.90;;;;;;5076267;28;19919;-70
2023/01/08 05:32:35;;;;;;;;;;;9.20;99.90;;;;;;5076235;28;19916;-69
2023/01/08 05:35:00;;;;;;;;;;;9.10;99.90;;;;;;5076161;28;19912;-67
2023/01/08 05:37:26;;;;;;;;;;;9.20;99.90;;;;;;5076656;28;20353;-69
2023/01/08 05:39:51;;;;;;;;;;;9.20;99.90;;;;;;5058545;28;19916;-69
2023/01/08 05:42:17;;;;;;;;;;;9.20;99.90;;;;;;5076183;28;19916;-69
2023/01/08 05:44:42;;;;;;;;;;;9.20;99.90;;;;;;5076269;28;20310;-68
2023/01/08 05:47:08;;;;;;;;;;;9.20;99.90;;;;;;5076139;28;19920;-70
2023/01/08 05:49:34;;;;;;;;;;;9.10;99.90;;;;;;5075249;28;19956;-68
2023/01/08 05:51:59;;;;;;;;;;;9.10;99.90;;;;;;5076309;28;19912;-70
2023/01/08 05:54:25;;;;;;;;;;;9.10;99.90;;;;;;5076052;28;19963;-68
2023/01/08 05:56:50;;;;;;;;;;;9.20;99.90;;;;;;5075986;28;19969;-70
2023/01/08 05:59:16;;;;;;;;;;;9.10;99.90;;;;;;5058029;28;19919;-69
2023/01/08 06:01:41;;;;;;;;;;;9.10;99.90;;;;;;5075999;28;19919;-69
2023/01/08 06:04:07;;;;;;;;;;;9.10;99.90;;;;;;5075971;28;20375;-68
2023/01/08 06:06:33;;;;;;;;;;;9.10;99.90;;;;;;5075922;28;19917;-70
2023/01/08 06:08:58;;;;;;;;;;;9.10;99.90;;;;;;5075775;28;19912;-68
2023/01/08 06:11:24;;;;;;;;;;;9.10;99.90;;;;;;5075847;28;20420;-68
2023/01/08 06:13:49;;;;;;;;;;;9.10;99.90;;;;;;5075641;28;19916;-71
2023/01/08 06:16:16;;;;;;;;;;;9.10;99.90;;;;;;5057751;28;20009;-69
2023/01/08 06:18:42;;;;;;;;;;;9.10;99.90;;;;;;5075790;28;19913;-71
2023/01/08 06:21:07;;;;;;;;;;;9.10;99.90;;;;;;5075425;28;20364;-68
2023/01/08 06:23:33;;;;;;;;;;;9.10;99.90;;;;;;5075020;28;19927;-68
2023/01/08 06:25:59;;;;;;;;;;;9.10;99.90;;;;;;5075446;28;20268;-68
2023/01/08 06:28:25;;;;;;;;;;;9.10;99.90;;;;;;5075495;28;19913;-68
2023/01/08 06:30:51;;;;;;;;;;;9.10;99.90;;;;;;5057451;28;19912;-71
2023/01/08 06:33:17;;;;;;;;;;;9.10;99.90;;;;;;5074368;28;20318;-68
2023/01/08 06:35:42;;;;;;;;;;;9.10;99.90;;;;;;5075230;28;19920;-70
2023/01/08 06:38:08;;;;;;;;;;;9.10;99.90;;;;;;5075109;28;19917;-68
2023/01/08 06:40:33;;;;;;;;;;;9.20;99.90;;;;;;5057103;28;20606;-68
2023/01/08 06:43:03;;;;;;;;;;;9.20;99.90;;;;;;5075082;28;20019;-70
2023/01/08 06:45:28;;;;;;;;;;;9.30;99.90;;;;;;5075050;28;19995;-68
2023/01/08 06:47:54;;;;;;;;;;;9.30;99.90;;;;;;5075213;28;19997;-68
2023/01/08 06:50:19;;;;;;;;;;;9.30;99.90;;;;;;5075072;28;20423;-71
2023/01/08 06:52:52;;;;;;;;;;;9.30;99.90;;;;;;5074872;28;19912;-68
2023/01/08 06:55:18;;;;;;;;;;;9.30;99.90;;;;;;5056417;28;19912;-68
2023/01/08 06:57:44;;;;;;;;;;;9.20;99.90;;;;;;5075259;28;19919;-68
2023/01/08 07:00:10;;;;;;;;;;;9.20;99.90;;;;;;5056907;28;19913;-71
2023/01/08 07:02:35;;;;;;;;;;;9.20;99.90;;;;;;5073988;28;19959;-68
2023/01/08 07:05:01;;;;;;;;;;;9.20;99.90;;;;;;5074581;28;19917;-71
2023/01/08 07:07:27;;;;;;;;;;;9.20;99.90;;;;;;5074403;28;19966;-71
2023/01/08 07:09:53;;;;;;;;;;;9.20;99.90;;;;;;5056212;28;19913;-68
2023/01/08 07:12:18;;;;;;;;;;;9.20;99.90;;;;;;5074882;28;19939;-70
2023/01/08 07:14:44;;;;;;;;;;;9.20;99.90;;;;;;5056508;28;19958;-68
2023/01/08 07:17:10;;;;;;;;;;;9.20;99.90;;;;;;5056531;28;20338;-71
2023/01/08 07:19:35;;;;;;;;;;;9.20;99.90;;;;;;5056645;28;19966;-69
2023/01/08 07:22:01;;;;;;;;;;;9.30;99.90;;;;;;5074487;28;19913;-68
2023/01/08 07:24:27;;;;;;;;;;;9.20;99.90;;;;;;5074435;28;19957;-69
2023/01/08 07:26:52;;;;;;;;;;;9.30;99.90;;;;;;5074448;28;20069;-71
2023/01/08 07:29:18;;;;;;;;;;;9.20;99.90;;;;;;5074555;28;19916;-71
2023/01/08 07:31:43;;;;;;;;;;;9.20;99.90;;;;;;5074356;28;19914;-68
2023/01/08 07:34:09;;;;;;;;;;;9.30;99.90;;;;;;5074371;28;19913;-71
2023/01/08 07:36:35;;;;;;;;;;;9.30;99.90;;;;;;5074247;28;19912;-68
2023/01/08 07:39:00;;;;;;;;;;;9.30;99.90;;;;;;5074005;28;19916;-68
2023/01/08 07:41:26;;;;;;;;;;;9.30;99.90;;;;;;5074349;28;19918;-70
2023/01/08 07:43:52;;;;;;;;;;;9.30;99.90;;;;;;5074238;28;19928;-68
2023/01/08 07:46:18;;;;;;;;;;;9.30;99.90;;;;;;5074284;28;20003;-68
2023/01/08 07:48:43;;;;;;;;;;;9.30;99.90;;;;;;5074339;28;19913;-68
2023/01/08 07:51:09;;;;;;;;;;;9.30;99.90;;;;;;5074251;28;19916;-70
2023/01/08 07:53:35;;;;;;;;;;;9.30;99.90;;;;;;5073618;28;19916;-67
2023/01/08 07:56:04;;;;;;;;;;;9.30;99.90;;;;;;5056123;28;19919;-68
2023/01/08 07:58:30;;;;;;;;;;;9.30;99.90;;;;;;5074051;28;19912;-71
2023/01/08 08:00:56;;;;;;;;;;;9.30;99.90;;;;;;5074162;28;19920;-68
2023/01/08 08:03:21;;;;;;;;;;;9.30;99.90;;;;;;5073956;28;19928;-71
2023/01/08 08:05:47;;;;;;;;;;;9.40;99.90;;;;;;5073901;28;19912;-68
2023/01/08 08:08:12;;;;;;;;;;;9.40;99.90;;;;;;5074031;28;19919;-70
2023/01/08 08:10:39;;;;;;;;;;;9.40;99.90;;;;;;5074129;28;20356;-70
2023/01/08 08:13:05;;;;;;;;;;;9.40;99.90;;;;;;5075259;28;19912;-70
2023/01/08 08:15:31;;;;;;;;;;;9.70;99.90;;;;;;5058870;28;19960;-70
2023/01/08 08:17:57;;;;;;;;;;;9.60;99.90;;;;;;5075587;28;19922;-67
2023/01/08 08:20:22;;;;;;;;;;;9.40;99.90;;;;;;5076895;28;19912;-69
2023/01/08 08:22:48;;;;;;;;;;;9.30;99.90;;;;;;5077512;28;20442;-67
2023/01/08 08:25:14;;;;;;;;;;;9.30;99.90;;;;;;5077667;28;19912;-70
2023/01/08 08:27:40;;;;;;;;;;;9.40;99.90;;;;;;5077594;28;19940;-70
2023/01/08 08:30:06;;;;;;;;;;;9.30;99.90;;;;;;5074483;28;19912;-69
2023/01/08 08:32:31;;;;;;;;;;;9.30;99.90;;;;;;5059026;28;19982;-68
2023/01/08 08:34:57;;;;;;;;;;;9.40;99.90;;;;;;5048725;28;19921;-69
2023/01/08 08:37:23;;;;;;;;;;;9.40;99.90;;;;;;5077271;28;20012;-70
2023/01/08 08:39:48;;;;;;;;;;;9.50;99.90;;;;;;5077197;28;19999;-69
2023/01/08 08:42:14;;;;;;;;;;;9.70;99.90;;;;;;5060582;28;19966;-69
2023/01/08 08:44:39;;;;;;;;;;;9.80;99.90;;;;;;5066170;28;20355;-71
2023/01/08 08:47:06;;;;;;;;;;;9.70;99.90;;;;;;5075641;28;19966;-70
2023/01/08 08:49:32;;;;;;;;;;;9.60;99.90;;;;;;5074903;28;19960;-69
2023/01/08 08:51:57;;;;;;;;;;;9.50;99.90;;;;;;5066220;28;19940;-69
2023/01/08 08:54:23;;;;;;;;;;;9.50;99.90;;;;;;5071472;28;19913;-71
2023/01/08 08:56:49;;;;;;;;;;;9.60;99.90;;;;;;5075558;28;19919;-68
2023/01/08 08:59:14;;;;;;;;;;;9.60;99.90;;;;;;5076439;28;19913;-67
2023/01/08 09:01:40;;;;;;;;;;;9.70;99.90;;;;;;5075471;28;20011;-68
2023/01/08 09:04:06;;;;;;;;;;;;;;;;;;5065836;28;19921;-71
2023/01/08 09:06:32;;;;;;;;;;;10.00;99.90;;;;;;5075293;28;20399;-70
2023/01/08 09:08:58;;;;;;;;;;;10.30;99.90;;;;;;5075182;28;20422;-68
2023/01/08 09:11:24;;;;;;;;;;;10.60;99.90;;;;;;5075382;28;19966;-70
2023/01/08 09:13:49;;;;;;;;;;;10.70;99.90;;;;;;5075369;28;19920;-70
2023/01/08 09:16:15;;;;;;;;;;;10.80;99.90;;;;;;5070434;28;20487;-68
2023/01/08 09:18:40;;;;;;;;;;;10.80;99.90;;;;;;5067957;28;19974;-68
2023/01/08 09:21:06;;;;;;;;;;;11.10;99.90;;;;;;5056982;28;20352;-68
2023/01/08 09:23:32;;;;;;;;;;;11.30;99.90;;;;;;5060746;28;19935;-69
2023/01/08 09:25:59;;;;;;;;;;;11.30;99.90;;;;;;5071765;28;19916;-71
2023/01/08 09:28:24;;;;;;;;;;;11.40;99.90;;;;;;5050299;28;19912;-69
2023/01/08 09:30:50;;;;;;;;;;;11.40;99.90;;;;;;5070941;28;19970;-69
2023/01/08 09:33:16;;;;;;;;;;;11.50;99.90;;;;;;5055571;28;19912;-69
2023/01/08 09:35:42;;;;;;;;;;;11.40;99.90;;;;;;5072982;28;19958;-71
2023/01/08 09:38:08;;;;;;;;;;;11.60;99.90;;;;;;5073100;28;19946;-70
2023/01/08 09:40:34;;;;;;;;;;;;;;;;;;5056065;28;20371;-69
2023/01/08 09:43:00;;;;;;;;;;;11.70;99.90;;;;;;5070331;28;20375;-70
2023/01/08 09:45:28;;;;;;;;;;;11.80;99.90;;;;;;5066216;28;19920;-75
2023/01/08 09:47:54;;;;;;;;;;;11.80;99.90;;;;;;5073680;28;20409;-74
2023/01/08 09:50:22;;;;;;;;;;;11.40;99.90;;;;;;5073185;28;19913;-73
2023/01/08 09:52:47;;;;;;;;;;;11.40;99.90;;;;;;5068007;28;19912;-71
2023/01/08 09:55:14;;;;;;;;;;;11.40;99.90;;;;;;5073918;28;19913;-72
2023/01/08 09:57:39;;;;;;;;;;;11.20;99.90;;;;;;5072614;28;19916;-71
2023/01/08 10:00:15;;;;;;;;;;;11.20;99.90;;;;;;5072629;28;19939;-69
2023/01/08 10:02:41;;;;;;;;;;;11.10;99.90;;;;;;5072692;28;19927;-69
2023/01/08 10:05:15;;;;;;;;;;;11.00;99.90;;;;;;5073203;28;19916;-69
2023/01/08 10:07:41;;;;;;;;;;;11.10;99.90;;;;;;5071826;28;19913;-72
2023/01/08 10:10:17;;;;;;;;;;;10.90;99.90;;;;;;5073300;28;19999;-71
2023/01/08 10:12:43;;;;;;;;;;;10.90;99.90;;;;;;5071962;28;19912;-71
2023/01/08 10:15:14;;;;;;;;;;;10.80;99.90;;;;;;5072248;28;20022;-71
2023/01/08 10:17:40;;;;;;;;;;;10.80;99.90;;;;;;5072537;28;19917;-69
2023/01/08 10:20:13;;;;;;;;;;;10.70;99.90;;;;;;5073213;28;19979;-72
2023/01/08 10:22:38;;;;;;;;;;;10.80;99.90;;;;;;5073049;28;19916;-70
2023/01/08 10:25:06;;;;;;;;;;;10.80;99.90;;;;;;5073297;28;19923;-71
2023/01/08 10:27:36;;;;;;;;;;;10.80;99.90;;;;;;5072296;28;19919;-72
2023/01/08 10:30:05;;;;;;;;;;;10.80;99.90;;;;;;5072055;28;19912;-72
2023/01/08 10:32:33;;;;;;;;;;;10.90;99.90;;;;;;5073074;28;19916;-72
2023/01/08 10:35:02;;;;;;;;;;;10.90;99.90;;;;;;5054626;28;19958;-72
2023/01/08 10:37:30;;;;;;;;;;;10.90;99.90;;;;;;5072822;28;19930;-71
2023/01/08 10:40:05;;;;;;;;;;;10.80;99.90;;;;;;5072772;28;19912;-72
2023/01/08 10:42:33;;;;;;;;;;;10.90;99.90;;;;;;5050507;28;19924;-72
2023/01/08 10:45:00;;;;;;;;;;;10.90;99.90;;;;;;5072143;28;19966;-72
2023/01/08 10:47:27;;;;;;;;;;;11.00;99.90;;;;;;5074773;28;19913;-72
2023/01/08 10:49:53;;;;;;;;;;;11.00;99.90;;;;;;5073210;28;19912;-72
2023/01/08 10:52:26;;;;;;;;;;;11.00;99.90;;;;;;5072819;28;20425;-71
2023/01/08 10:54:52;;;;;;;;;;;11.00;99.90;;;;;;5071155;28;19919;-72
2023/01/08 10:57:19;;;;;;;;;;;11.00;99.90;;;;;;5070898;28;19912;-72
2023/01/08 10:59:45;;;;;;;;;;;11.10;99.90;;;;;;5071534;28;19956;-72
2023/01/08 11:02:19;;;;;;;;;;;11.20;99.90;;;;;;5072697;28;19974;-71
2023/01/08 11:04:47;;;;;;;;;;;11.20;99.90;;;;;;5071279;28;19924;-74
2023/01/08 11:07:19;;;;;;;;;;;11.40;99.90;;;;;;5058515;28;20387;-69
2023/01/08 11:09:46;;;;;;;;;;;11.40;99.90;;;;;;5062179;28;20258;-68
2023/01/08 11:12:35;;;;;;;;;;;11.40;99.90;;;;;;5064171;28;20314;-68
2023/01/08 11:15:06;;;;;;;;;;;11.40;99.90;;;;;;5060348;28;20379;-68
2023/01/08 11:17:32;;;;;;;;;;;11.40;99.90;;;;;;5070249;28;20007;-71
2023/01/08 11:20:16;;;;;;;;;;;11.40;99.90;;;;;;5067251;28;19919;-69
2023/01/08 11:22:42;;;;;;;;;;;11.40;99.90;;;;;;5068954;28;19916;-69
2023/01/08 11:25:10;;;;;;;;;;;11.40;99.90;;;;;;5072404;28;20054;-72
2023/01/08 11:27:39;;;;;;;;;;;11.40;99.90;;;;;;5071787;28;19958;-70
2023/01/08 11:30:10;;;;;;;;;;;11.40;99.90;;;;;;5069722;28;20283;-70
2023/01/08 11:32:36;;;;;;;;;;;11.40;99.90;;;;;;5070822;28;19917;-70
2023/01/08 11:35:11;;;;;;;;;;;11.40;99.90;;;;;;5070960;28;19919;-70
2023/01/08 11:37:39;;;;;;;;;;;11.40;99.90;;;;;;5072372;28;20392;-70
2023/01/08 11:40:12;;;;;;;;;;;11.40;99.90;;;;;;5072382;28;19912;-70
2023/01/08 11:42:37;;;;;;;;;;;11.40;99.90;;;;;;5071113;28;19921;-70
2023/01/08 11:45:09;;;;;;;;;;;11.40;99.90;;;;;;5052929;28;19913;-70
2023/01/08 11:47:40;;;;;;;;;;;11.40;99.90;;;;;;5071703;28;19944;-70
2023/01/08 11:50:24;;;;;;;;;;;11.50;99.90;;;;;;5072437;28;19912;-70
2023/01/08 11:53:04;;;;;;;;;;;11.50;99.90;;;;;;5053966;28;20557;-71
2023/01/08 11:55:45;;;;;;;;;;;11.50;99.90;;;;;;5071982;28;19955;-71
2023/01/08 11:58:37;;;;;;;;;;;11.60;99.90;;;;;;5071375;28;20286;-70
2023/01/08 12:01:03;;;;;;;;;;;11.50;99.90;;;;;;5067963;28;19919;-70
2023/01/08 12:03:34;;;;;;;;;;;11.50;99.90;;;;;;5071580;28;20291;-70
2023/01/08 12:06:09;;;;;;;;;;;11.50;99.90;;;;;;5071445;28;19913;-71
2023/01/08 12:08:39;;;;;;;;;;;11.40;99.90;;;;;;5070912;28;19912;-71
2023/01/08 12:11:05;;;;;;;;;;;11.40;99.90;;;;;;5053341;28;19912;-70
2023/01/08 12:13:36;;;;;;;;;;;11.50;99.90;;;;;;5072519;28;19919;-71
2023/01/08 12:16:05;;;;;;;;;;;11.40;99.90;;;;;;5071316;28;19928;-71
2023/01/08 12:18:36;;;;;;;;;;;11.40;99.90;;;;;;5071575;28;19969;-70
2023/01/08 12:21:07;;;;;;;;;;;11.40;99.90;;;;;;5071453;28;20414;-70
2023/01/08 12:23:36;;;;;;;;;;;11.40;99.90;;;;;;5070885;28;19955;-70
2023/01/08 12:26:30;;;;;;;;;;;11.40;99.90;;;;;;5069966;28;20279;-70
2023/01/08 12:28:56;;;;;;;;;;;11.30;99.90;;;;;;5005460;28;19995;-69
2023/01/08 12:31:31;;;;;;;;;;;11.40;99.90;;;;;;5053132;28;19970;-69
2023/01/08 12:33:59;;;;;;;;;;;11.40;99.90;;;;;;5069349;28;19916;-69
2023/01/08 12:36:45;;;;;;;;;;;11.40;99.90;;;;;;5070953;28;19916;-69
2023/01/08 12:39:18;;;;;;;;;;;12.10;99.90;;;;;;5070331;28;19965;-70
2023/01/08 12:41:45;;;;;;;;;;;12.20;99.90;;;;;;5064398;28;19916;-70
2023/01/08 12:44:15;;;;;;;;;;;11.70;99.90;;;;;;5053689;28;19921;-70
2023/01/08 12:46:46;;;;;;;;;;;11.60;99.90;;;;;;5065952;28;19923;-67
2023/01/08 12:49:19;;;;;;;;;;;11.50;99.90;;;;;;5068264;28;19912;-69
2023/01/08 12:51:45;;;;;;;;;;;11.50;99.90;;;;;;5070300;28;20003;-68
2023/01/08 12:54:20;;;;;;;;;;;11.40;99.90;;;;;;5071269;28;20349;-67
2023/01/08 12:56:57;;;;;;;;;;;11.40;99.90;;;;;;5070302;28;19989;-69
2023/01/08 12:59:39;;;;;;;;;;;11.40;99.90;;;;;;5071700;28;20455;-68
2023/01/08 13:02:23;;;;;;;;;;;11.40;99.90;;;;;;5074913;28;19913;-69
2023/01/08 13:04:49;;;;;;;;;;;11.30;99.90;;;;;;5074039;28;19920;-69
2023/01/08 13:07:19;;;;;;;;;;;11.40;99.90;;;;;;5074022;28;20004;-69
2023/01/08 13:09:45;;;;;;;;;;;11.30;99.90;;;;;;5075276;28;19923;-69
2023/01/08 13:12:13;;;;;;;;;;;11.30;99.90;;;;;;5092598;28;19920;-69
2023/01/08 13:14:39;;;;;;;;;;;11.30;99.90;;;;;;5089703;28;19959;-67
2023/01/08 13:17:15;;;;;;;;;;;11.30;99.90;;;;;;5074659;28;20419;-67
2023/01/08 13:19:43;;;;;;;;;;;11.30;99.90;;;;;;5073895;28;19917;-67
2023/01/08 13:22:22;;;;;;;;;;;11.20;99.90;;;;;;5074023;28;20186;-68
2023/01/08 13:24:47;;;;;;;;;;;11.20;99.90;;;;;;5069282;28;20287;-68
2023/01/08 13:27:16;;;;;;;;;;;11.20;99.90;;;;;;5072958;28;19916;-67
2023/01/08 13:29:45;;;;;;;;;;;11.10;99.90;;;;;;5072609;28;19919;-67
2023/01/08 13:32:22;;;;;;;;;;;11.20;99.90;;;;;;5073263;28;19920;-67
2023/01/08 13:34:48;;;;;;;;;;;11.10;99.90;;;;;;5074622;28;19943;-67
2023/01/08 13:37:22;;;;;;;;;;;11.00;99.90;;;;;;5073762;28;19950;-67
2023/01/08 13:39:48;;;;;;;;;;;11.00;99.90;;;;;;5072884;28;20445;-67
2023/01/08 13:42:20;;;;;;;;;;;11.00;99.90;;;;;;5073510;28;19912;-67
2023/01/08 13:44:50;;;;;;;;;;;10.90;99.90;;;;;;5073408;28;20318;-67
2023/01/08 13:47:30;;;;;;;;;;;10.90;99.90;;;;;;5071065;28;19919;-67
2023/01/08 13:49:56;;;;;;;;;;;11.00;99.90;;;;;;5071033;28;19919;-67
2023/01/08 13:52:31;;;;;;;;;;;11.00;99.90;;;;;;5073390;28;20003;-67
2023/01/08 13:54:57;;;;;;;;;;;10.90;99.90;;;;;;5070399;28;19912;-67
2023/01/08 13:57:22;;;;;;;;;;;10.90;99.90;;;;;;5073279;28;19912;-67
2023/01/08 13:59:56;;;;;;;;;;;10.90;99.90;;;;;;5074297;28;19920;-67
2023/01/08 14:02:30;;;;;;;;;;;10.90;99.90;;;;;;5073047;28;19916;-66
2023/01/08 14:04:57;;;;;;;;;;;10.90;99.90;;;;;;5068536;28;20011;-67
2023/01/08 14:07:23;;;;;;;;;;;10.90;99.90;;;;;;5052297;28;19920;-67
2023/01/08 14:09:49;;;;;;;;;;;10.80;99.90;;;;;;5072851;28;19966;-67
2023/01/08 14:12:19;;;;;;;;;;;10.90;99.90;;;;;;5072773;28;19916;-67
2023/01/08 14:14:49;;;;;;;;;;;10.90;99.90;;;;;;5072096;28;19923;-67
2023/01/08 14:17:16;;;;;;;;;;;11.00;99.90;;;;;;5073568;28;19913;-66
2023/01/08 14:19:41;;;;;;;;;;;10.90;99.90;;;;;;5072625;28;20735;-67
2023/01/08 14:22:11;;;;;;;;;;;10.90;99.90;;;;;;5073558;28;19913;-67
2023/01/08 14:24:37;;;;;;;;;;;10.90;99.90;;;;;;5072602;28;20003;-67
2023/01/08 14:27:04;;;;;;;;;;;10.90;99.90;;;;;;5072358;28;20197;-67
2023/01/08 14:29:31;;;;;;;;;;;10.80;99.90;;;;;;5072039;28;19999;-67
2023/01/08 14:31:58;;;;;;;;;;;10.80;99.90;;;;;;5072954;28;19916;-67